Main page
METAR-TAF:

METAR-TAF

Airports :

Bolzano, Italy

latitude: 46-28N, longitude: 011-20E, elevation: 262 m

Current weather observation

The report was made 1 hour and 2 minutes ago, at 07:50 UTC
Wind 3 kt from the East/Southeast
Temperature 21°C
Humidity 43%
Pressure 1012 hPa
Visibility 10 km or more
Few clouds at a height of 10000 ft

METAR: LIPB 270750Z 11003KT 9999 FEW100 21/08 Q1012

Time: 10:52 (08:52 UTC)

Forecast

The report was made 3 hours and 52 minutes ago, at 05:00 UTC
Forecast valid from 27 at 06 UTC to 28 at 06 UTC
Wind 5 kt from variable directions
Visibility 10 km or more
Few clouds at a height of 5000 ft

TAF: LIPB 270500Z 2706/2806 VRB05KT 9999 FEW050

Weather observations and forecasts of more than 4000 airports (METAR and TAF reports).

The available stations are represented by yellow and red dots on the map.

Hover mouse over dot to see the name of the station.

Then click to see weather observations and forecasts.

To change the map : click on the green buttons with a black cross to zoom in, on the green button with a dash to zoom out, or on the green arrows for adjacent maps.


METAR-TAF: